Time;durP1;ratioP1;P1;durP2;ratioP2;P2;SDS_P1;SDS_P2;PMS_P1;PMS_P2;Temp;Humidity;BMP_temperature;BMP_pressure;BME280_temperature;BME280_humidity;BME280_pressure;Samples;Min_cycle;Max_cycle;Signal;HPM_P1;HPM_P2
2022/08/29 00:01:12;;;;;;;8.70;3.37;;;;;;;15.04;66.41;101290.84;5114389;28;20328;-83
2022/08/29 00:03:39;;;;;;;8.87;3.23;;;;;;;15.02;66.29;101291.91;5122421;28;20210;-82
2022/08/29 00:06:06;;;;;;;7.83;2.93;;;;;;;14.99;66.54;101287.63;5123740;28;20200;-83
2022/08/29 00:08:32;;;;;;;7.30;3.37;;;;;;;14.98;66.54;101280.53;5114515;28;20234;-82
2022/08/29 00:10:59;;;;;;;7.37;2.70;;;;;;;14.96;66.64;101279.78;5126220;28;20231;-85
2022/08/29 00:13:26;;;;;;;6.93;2.90;;;;;;;14.94;66.43;101284.41;5115701;28;20559;-84
2022/08/29 00:15:53;;;;;;;6.40;3.00;;;;;;;14.91;66.59;101288.16;5119938;27;20203;-85
2022/08/29 00:18:21;;;;;;;7.97;3.23;;;;;;;14.90;66.53;101277.53;5125807;27;20711;-83
2022/08/29 00:20:48;;;;;;;4.90;3.13;;;;;;;14.88;66.95;101276.78;5119420;27;20223;-81
2022/08/29 00:23:14;;;;;;;8.33;3.30;;;;;;;14.86;66.95;101273.38;5108672;27;20206;-82
2022/08/29 00:25:41;;;;;;;7.47;3.10;;;;;;;14.82;66.86;101269.19;5120856;27;20216;-83
2022/08/29 00:28:08;;;;;;;5.37;2.90;;;;;;;14.80;66.68;101271.13;5113604;27;20248;-83
2022/08/29 00:30:35;;;;;;;7.00;3.00;;;;;;;14.77;67.09;101265.97;5127459;27;20199;-81
2022/08/29 00:33:02;;;;;;;6.53;3.40;;;;;;;14.72;66.85;101271.66;5111473;27;20219;-82
2022/08/29 00:35:33;;;;;;;7.67;3.13;;;;;;;14.70;67.41;101275.41;5115820;27;20214;-81
2022/08/29 00:38:01;;;;;;;5.47;2.73;;;;;;;14.68;67.05;101280.06;5113591;27;20237;-82
2022/08/29 00:40:30;;;;;;;7.97;2.90;;;;;;;14.65;67.45;101278.44;5111762;27;20263;-82
2022/08/29 00:42:58;;;;;;;5.73;2.90;;;;;;;14.63;67.40;101277.69;5104987;27;20647;-83
2022/08/29 00:45:24;;;;;;;7.40;2.90;;;;;;;14.62;67.77;101280.47;5116483;27;21252;-82
2022/08/29 00:47:54;;;;;;;6.43;2.97;;;;;;;14.59;67.38;101269.00;5113861;28;20227;-84
2022/08/29 00:50:25;;;;;;;7.90;3.43;;;;;;;14.58;67.93;101269.97;5112073;27;20223;-82
2022/08/29 00:52:56;;;;;;;8.53;3.77;;;;;;;14.56;67.60;101269.19;5105797;28;20211;-82
2022/08/29 00:55:25;;;;;;;8.50;3.60;;;;;;;14.54;67.90;101272.94;5111180;28;20226;-83
2022/08/29 00:57:58;;;;;;;4.43;3.00;;;;;;;14.51;68.15;101271.34;5132700;27;20219;-84
2022/08/29 01:00:27;;;;;;;7.33;3.00;;;;;;;14.50;67.86;101276.84;5121515;27;20211;-82
2022/08/29 01:02:54;;;;;;;8.77;3.20;;;;;;;14.48;67.83;101276.09;5128032;27;20695;-83
2022/08/29 01:05:22;;;;;;;7.37;3.43;;;;;;;14.45;68.04;101266.44;5114342;27;20200;-82
2022/08/29 01:07:48;;;;;;;6.53;3.50;;;;;;;14.43;68.16;101275.53;5129264;27;20237;-84
2022/08/29 01:12:59;;;;;;;7.80;3.20;;;;;;;14.36;68.59;101285.78;5110902;27;20319;-83
2022/08/29 01:15:29;;;;;;;7.87;3.20;;;;;;;14.35;68.32;101284.06;5110803;27;20568;-83
2022/08/29 01:17:57;;;;;;;5.87;3.20;;;;;;;14.32;68.42;101278.94;5130709;27;20271;-85
2022/08/29 01:20:34;;;;;;;6.03;3.00;;;;;;;14.30;68.86;101282.69;5115469;27;20225;-83
2022/08/29 01:23:07;;;;;;;7.23;3.33;;;;;;;14.28;68.70;101279.25;5115148;27;20201;-83
2022/08/29 01:25:39;;;;;;;6.97;3.03;;;;;;;14.25;68.81;101280.31;5100589;28;20210;-84
2022/08/29 01:28:10;;;;;;;8.07;3.33;;;;;;;14.22;68.72;101270.66;5124466;27;20724;-83
2022/08/29 01:30:37;;;;;;;6.00;2.73;;;;;;;14.20;68.87;101271.72;5126841;27;20201;-83
2022/08/29 01:33:05;;;;;;;6.27;3.37;;;;;;;14.18;68.86;101273.63;5135850;27;20569;-83
2022/08/29 01:35:32;;;;;;;7.00;3.27;;;;;;;14.15;69.25;101264.00;5110426;27;20303;-82
2022/08/29 01:37:58;;;;;;;4.90;2.97;;;;;;;14.12;69.51;101272.25;5118545;27;20232;-84
2022/08/29 01:40:29;;;;;;;7.80;3.40;;;;;;;14.11;69.04;101275.03;5104298;27;20220;-83
2022/08/29 01:42:57;;;;;;;5.43;2.53;;;;;;;14.09;69.47;101271.59;5117475;27;20206;-81
2022/08/29 01:45:24;;;;;;;7.93;3.00;;;;;;;14.07;69.34;101274.38;5128302;27;20199;-81
2022/08/29 01:47:50;;;;;;;5.37;2.93;;;;;;;14.06;69.55;101275.34;5138584;27;20308;-81
2022/08/29 01:50:17;;;;;;;8.10;2.90;;;;;;;14.03;69.45;101278.22;5118243;27;20210;-83
2022/08/29 01:52:43;;;;;;;6.57;3.00;;;;;;;14.01;69.62;101276.63;5114664;27;20234;-83
2022/08/29 01:55:10;;;;;;;4.40;3.03;;;;;;;13.99;69.45;101274.03;5120750;27;20204;-83
2022/08/29 01:57:38;;;;;;;5.80;2.70;;;;;;;13.98;69.62;101271.47;5112886;27;20226;-82
2022/08/29 02:00:09;;;;;;;6.97;2.70;;;;;;;13.97;70.08;101285.84;5123440;27;20222;-82
2022/08/29 02:02:37;;;;;;;7.60;3.23;;;;;;;13.94;70.13;101283.34;5138584;27;20713;-83
2022/08/29 02:05:04;;;;;;;8.30;2.80;;;;;;;13.92;70.25;101291.50;5128244;27;20206;-82
2022/08/29 02:07:31;;;;;;;7.23;3.10;;;;;;;13.92;70.14;101282.59;5120540;27;20219;-82
2022/08/29 02:09:58;;;;;;;9.20;3.30;;;;;;;13.90;70.08;101286.25;5121837;27;20294;-83
2022/08/29 02:12:25;;;;;;;8.23;2.80;;;;;;;13.88;70.38;101288.16;5117751;28;20199;-84
2022/08/29 02:14:52;;;;;;;7.30;3.03;;;;;;;13.88;70.26;101281.94;5114669;27;20229;-84
2022/08/29 02:17:20;;;;;;;8.50;3.20;;;;;;;13.88;70.50;101289.97;5119249;27;20224;-85
2022/08/29 02:19:47;;;;;;;5.50;2.80;;;;;;;13.87;70.61;101280.22;5113278;27;20206;-83
2022/08/29 02:22:14;;;;;;;4.50;2.93;;;;;;;13.86;70.59;101290.06;5122963;27;20227;-83
2022/08/29 02:24:41;;;;;;;8.00;3.53;;;;;;;13.86;70.82;101286.53;5134281;27;20211;-82
2022/08/29 02:27:11;;;;;;;6.20;2.90;;;;;;;13.85;71.04;101287.50;5114421;27;20224;-82
2022/08/29 02:29:38;;;;;;;5.87;2.60;;;;;;;13.84;71.23;101286.63;5121640;27;20237;-82
2022/08/29 02:32:06;;;;;;;9.07;3.43;;;;;;;13.85;70.95;101295.53;5119084;27;20203;-82
2022/08/29 02:34:35;;;;;;;6.87;2.77;;;;;;;13.84;71.00;101296.50;5121436;27;20212;-82
2022/08/29 02:37:01;;;;;;;7.30;2.97;;;;;;;13.82;71.24;101293.91;5109298;28;20248;-83
2022/08/29 02:39:28;;;;;;;7.97;2.83;;;;;;;13.82;71.44;101285.03;5111676;28;20207;-82
2022/08/29 02:41:54;;;;;;;4.70;2.60;;;;;;;13.81;71.67;101292.19;5127704;27;20461;-83
2022/08/29 02:44:21;;;;;;;8.07;3.20;;;;;;;13.82;71.78;101288.56;5115362;27;20202;-84
2022/08/29 02:46:48;;;;;;;7.47;3.23;;;;;;;13.82;71.63;101288.56;5122926;27;20233;-82
2022/08/29 02:49:15;;;;;;;7.77;3.40;;;;;;;13.82;71.49;101287.69;5119726;28;20209;-82
2022/08/29 02:51:43;;;;;;;12.67;3.07;;;;;;;13.82;72.10;101288.56;5124764;28;20215;-84
2022/08/29 02:54:10;;;;;;;6.13;3.27;;;;;;;13.83;71.79;101289.41;5124537;28;20228;-84
2022/08/29 02:56:37;;;;;;;10.40;3.33;;;;;;;13.83;72.36;101284.06;5117225;28;20227;-81
2022/08/29 02:59:04;;;;;;;5.97;3.37;;;;;;;13.83;72.25;101287.59;5115314;28;20207;-82
2022/08/29 03:01:31;;;;;;;5.37;2.67;;;;;;;13.83;72.24;101284.91;5117769;28;20226;-82
2022/08/29 03:03:57;;;;;;;8.67;3.63;;;;;;;13.83;72.12;101284.06;5114992;28;20208;-82
2022/08/29 03:06:24;;;;;;;8.93;3.10;;;;;;;13.81;72.35;101289.50;5121162;27;20712;-82
2022/08/29 03:08:52;;;;;;;8.53;3.07;;;;;;;13.81;72.55;101288.66;5115631;28;20208;-84
2022/08/29 03:11:18;;;;;;;9.13;3.57;;;;;;;13.79;72.43;101296.78;5119068;28;20191;-83
2022/08/29 03:13:47;;;;;;;8.33;2.93;;;;;;;13.79;72.51;101286.06;5111968;28;20683;-82
2022/08/29 03:16:14;;;;;;;3.63;2.77;;;;;;;13.79;72.48;101294.09;5119769;28;20213;-84
2022/08/29 03:18:40;;;;;;;7.10;2.90;;;;;;;13.78;72.40;101283.53;5117929;28;20211;-83
2022/08/29 03:21:14;;;;;;;6.83;3.23;;;;;;;13.78;72.54;101284.41;5118199;28;20219;-82
2022/08/29 03:23:41;;;;;;;11.03;3.47;;;;;;;13.79;73.05;101280.72;5125266;28;20508;-83
2022/08/29 03:26:09;;;;;;;6.90;2.93;;;;;;;13.78;73.10;101279.03;5125394;28;20218;-82
2022/08/29 03:28:35;;;;;;;8.20;3.20;;;;;;;13.79;72.95;101287.94;5098799;28;20196;-82
2022/08/29 03:31:02;;;;;;;4.20;2.87;;;;;;;13.78;73.08;101276.38;5109724;28;20206;-82
2022/08/29 03:33:28;;;;;;;7.10;3.43;;;;;;;13.78;73.00;101284.41;5115240;28;20213;-82
2022/08/29 03:35:55;;;;;;;6.03;3.60;;;;;;;13.78;73.00;101280.84;5112992;28;20230;-82
2022/08/29 03:38:21;;;;;;;7.63;3.47;;;;;;;13.79;72.87;101290.59;5115180;28;20219;-81
2022/08/29 03:40:48;;;;;;;5.47;3.27;;;;;;;13.78;73.01;101278.19;5128482;28;20231;-81
2022/08/29 03:43:18;;;;;;;8.80;3.30;;;;;;;13.77;73.26;101288.03;5119475;28;20246;-82
2022/08/29 03:45:44;;;;;;;9.13;3.43;;;;;;;13.78;72.99;101275.50;5070678;28;1053990;-83
2022/08/29 03:48:11;;;;;;;7.17;2.97;;;;;;;13.78;73.49;101279.03;5117802;27;20223;-82
2022/08/29 03:50:37;;;;;;;6.13;3.50;;;;;;;13.79;73.51;101277.22;5115874;27;20196;-85
2022/08/29 03:53:04;;;;;;;5.97;3.20;;;;;;;13.79;73.05;101283.41;5114323;27;20666;-81
2022/08/29 03:55:30;;;;;;;5.70;3.33;;;;;;;13.80;73.08;101284.25;5111896;28;20227;-81
2022/08/29 03:57:57;;;;;;;4.47;2.60;;;;;;;13.80;73.19;101278.91;5114076;28;20227;-83
2022/08/29 04:00:25;;;;;;;7.27;3.40;;;;;;;13.79;73.69;101288.75;5109214;28;20259;-84
2022/08/29 04:02:54;;;;;;;5.77;2.83;;;;;;;13.81;73.51;101284.16;5121440;28;20197;-82
2022/08/29 04:05:21;;;;;;;6.27;2.87;;;;;;;13.80;73.26;101287.78;5125430;28;20231;-81
2022/08/29 04:07:49;;;;;;;5.87;2.87;;;;;;;13.83;73.65;101290.28;5108204;28;20229;-81
2022/08/29 04:10:20;;;;;;;6.70;2.80;;;;;;;13.84;73.47;101286.63;5119712;28;20205;-82
2022/08/29 04:12:46;;;;;;;7.87;3.33;;;;;;;13.86;73.45;101289.22;5111224;28;20204;-84
2022/08/29 04:15:13;;;;;;;6.30;2.73;;;;;;;13.84;73.81;101286.63;5114889;28;20728;-82
2022/08/29 04:17:42;;;;;;;5.97;2.90;;;;;;;13.86;74.03;101289.22;5118357;28;20245;-82
2022/08/29 04:20:10;;;;;;;5.70;2.87;;;;;;;13.88;73.92;101281.94;5109676;28;20204;-84
2022/08/29 04:22:39;;;;;;;7.67;2.97;;;;;;;13.90;74.26;101285.38;5109435;28;20728;-82
2022/08/29 04:25:08;;;;;;;5.80;2.80;;;;;;;13.90;74.78;101291.59;5107468;28;20201;-82
2022/08/29 04:27:36;;;;;;;11.30;3.37;;;;;;;13.93;74.36;101298.56;5106999;28;20250;-84
2022/08/29 04:30:05;;;;;;;7.93;3.60;;;;;;;13.94;74.51;101297.63;5112742;28;20630;-82
2022/08/29 04:32:31;;;;;;;8.40;3.30;;;;;;;13.96;74.68;101298.38;5103851;28;20313;-82
2022/08/29 04:34:59;;;;;;;6.67;3.30;;;;;;;13.97;75.04;101302.75;5111003;28;20227;-82
2022/08/29 04:37:26;;;;;;;6.37;2.90;;;;;;;13.99;75.35;101302.63;5108414;28;21117;-83
2022/08/29 04:39:53;;;;;;;6.90;3.03;;;;;;;14.00;75.44;101301.66;5109017;28;20222;-84
2022/08/29 04:42:20;;;;;;;7.10;3.33;;;;;;;14.01;75.51;101300.72;5114137;28;20638;-81
2022/08/29 04:44:47;;;;;;;6.40;2.83;;;;;;;14.04;75.13;101313.91;5109384;28;20203;-82
2022/08/29 04:47:14;;;;;;;10.67;4.13;;;;;;;14.05;75.74;101307.59;5102775;28;20235;-81
2022/08/29 04:49:42;;;;;;;7.23;2.97;;;;;;;14.07;75.87;101309.22;5112402;28;20208;-83
2022/08/29 04:52:12;;;;;;;8.30;3.33;;;;;;;14.10;76.05;101306.31;5110472;28;20200;-82
2022/08/29 04:54:39;;;;;;;12.20;3.63;;;;;;;14.11;75.67;101299.16;5116770;28;20192;-83
2022/08/29 04:57:06;;;;;;;9.50;3.30;;;;;;;14.11;75.69;101304.50;5110473;28;20231;-82
2022/08/29 04:59:32;;;;;;;6.37;2.90;;;;;;;14.13;76.42;101306.13;5113925;28;20203;-81
2022/08/29 05:01:59;;;;;;;8.53;3.10;;;;;;;14.15;76.38;101309.53;5115863;28;20234;-81
2022/08/29 05:04:26;;;;;;;7.07;3.07;;;;;;;14.16;76.17;101308.56;5123525;27;20287;-83
2022/08/29 05:06:52;;;;;;;9.37;3.30;;;;;;;14.18;76.41;101303.09;5109757;27;20227;-82
2022/08/29 05:09:20;;;;;;;7.33;3.37;;;;;;;14.21;76.47;101305.59;5119150;27;20570;-81
2022/08/29 05:11:47;;;;;;;9.37;3.17;;;;;;;14.24;76.10;101313.41;5117031;27;20227;-83
2022/08/29 05:14:14;;;;;;;8.67;3.47;;;;;;;14.27;76.57;101310.53;5116001;27;20219;-81
2022/08/29 05:16:40;;;;;;;6.77;3.17;;;;;;;14.29;76.46;101300.56;5107015;27;20239;-82
2022/08/29 05:19:08;;;;;;;7.77;2.97;;;;;;;14.31;76.16;101314.72;5115381;27;20199;-79
2022/08/29 05:21:36;;;;;;;9.07;3.20;;;;;;;14.33;76.48;101310.09;5115545;27;20219;-79
2022/08/29 05:24:05;;;;;;;7.97;3.17;;;;;;;14.36;76.24;101303.66;5109281;27;20200;-79
2022/08/29 05:26:37;;;;;;;6.60;2.87;;;;;;;14.38;76.59;101307.97;5110346;27;20216;-79
2022/08/29 05:29:06;;;;;;;8.03;3.27;;;;;;;14.42;76.67;101293.44;5118808;27;20195;-80
2022/08/29 05:31:35;;;;;;;4.43;2.97;;;;;;;14.44;76.46;101304.91;5108823;27;20282;-79
2022/08/29 05:34:01;;;;;;;7.07;3.30;;;;;;;14.46;76.03;101308.34;5124674;27;20242;-79
2022/08/29 05:36:28;;;;;;;7.10;3.30;;;;;;;14.48;76.22;101310.94;5113500;27;20231;-79
2022/08/29 05:38:54;;;;;;;7.23;2.83;;;;;;;14.49;76.03;101313.50;5123874;27;20218;-79
2022/08/29 05:41:21;;;;;;;6.70;2.93;;;;;;;14.51;76.01;101314.22;5114114;27;20681;-79
2022/08/29 05:43:49;;;;;;;6.53;2.73;;;;;;;14.54;75.97;101316.69;5118762;27;20572;-80
2022/08/29 05:46:15;;;;;;;8.37;2.97;;;;;;;14.56;75.53;101314.78;5114933;27;21484;-79
2022/08/29 05:48:42;;;;;;;8.57;3.00;;;;;;;14.59;75.96;101319.94;5117726;27;20212;-79
2022/08/29 05:51:16;;;;;;;7.23;3.50;;;;;;;14.63;75.71;101319.72;5114625;27;20204;-80
2022/08/29 05:53:42;;;;;;;8.00;3.30;;;;;;;14.65;75.29;101315.09;5113842;27;20199;-79
2022/08/29 05:56:09;;;;;;;8.10;2.93;;;;;;;14.69;75.25;101324.66;5116119;27;20208;-79
2022/08/29 05:58:35;;;;;;;7.03;3.33;;;;;;;14.73;75.16;101327.00;5114471;27;20204;-79
2022/08/29 06:01:03;;;;;;;7.43;3.77;;;;;;;14.79;75.48;101328.41;5112323;27;20572;-79
2022/08/29 06:03:30;;;;;;;7.63;3.20;;;;;;;14.84;75.34;101332.50;5114415;27;20597;-79
2022/08/29 06:05:56;;;;;;;7.73;3.27;;;;;;;14.88;75.12;101327.75;5108905;27;20195;-79
2022/08/29 06:08:23;;;;;;;9.33;3.50;;;;;;;14.93;75.38;101330.97;5112596;27;20219;-79
2022/08/29 06:10:49;;;;;;;8.47;3.23;;;;;;;14.96;74.81;101327.22;5114481;27;20227;-79
2022/08/29 06:13:16;;;;;;;5.70;2.43;;;;;;;15.01;74.79;101325.94;5112798;27;20212;-78
2022/08/29 06:15:43;;;;;;;7.87;3.07;;;;;;;15.05;74.92;101329.25;5108962;27;20211;-78
2022/08/29 06:18:11;;;;;;;8.90;2.90;;;;;;;15.09;74.87;101317.31;5116206;27;20230;-79
2022/08/29 06:20:38;;;;;;;7.33;3.10;;;;;;;15.12;74.88;101323.31;5114066;27;20198;-78
2022/08/29 06:23:05;;;;;;;10.33;2.80;;;;;;;15.15;74.81;101333.84;5118320;27;20230;-78
2022/08/29 06:25:31;;;;;;;7.10;3.00;;;;;;;15.19;74.53;101332.66;5122510;27;20207;-78
2022/08/29 06:27:58;;;;;;;7.87;2.97;;;;;;;15.21;74.55;101332.56;5125698;27;20704;-78
2022/08/29 06:30:24;;;;;;;6.87;2.80;;;;;;;15.23;74.28;101338.63;5119236;27;20574;-79
2022/08/29 06:32:51;;;;;;;6.57;3.07;;;;;;;15.25;74.30;101334.88;5121138;27;20199;-79
2022/08/29 06:35:19;;;;;;;8.30;2.90;;;;;;;15.29;74.25;101344.44;5126607;27;20204;-79
2022/08/29 06:37:45;;;;;;;6.03;3.03;;;;;;;15.30;74.10;101339.94;5121715;27;20242;-78
2022/08/29 06:40:12;;;;;;;5.23;2.97;;;;;;;15.31;74.24;101343.47;5124166;27;20207;-78
2022/08/29 06:42:38;;;;;;;7.53;3.23;;;;;;;15.31;73.99;101347.00;5122063;27;20588;-79
2022/08/29 06:45:06;;;;;;;8.27;4.00;;;;;;;15.33;74.16;101349.59;5115673;27;20204;-79
2022/08/29 06:47:33;;;;;;;8.23;3.27;;;;;;;15.32;73.70;101354.09;5129196;27;20228;-78
2022/08/29 06:50:00;;;;;;;7.80;2.87;;;;;;;15.33;73.90;101349.59;5121976;27;20208;-79
2022/08/29 06:52:28;;;;;;;8.10;3.27;;;;;;;15.36;73.93;101360.97;5125327;27;20222;-79
2022/08/29 06:54:54;;;;;;;8.10;3.43;;;;;;;15.39;74.07;101351.84;5113861;27;20231;-79
2022/08/29 06:57:21;;;;;;;8.03;3.47;;;;;;;15.43;74.04;101356.84;5115451;27;20223;-79
2022/08/29 06:59:47;;;;;;;7.97;3.30;;;;;;;15.47;73.71;101355.66;5113135;27;20259;-79
2022/08/29 07:02:14;;;;;;;8.20;3.77;;;;;;;15.50;73.77;101355.44;5120317;27;21504;-79
2022/08/29 07:04:40;;;;;;;5.37;3.33;;;;;;;15.55;73.68;101364.06;5117586;27;20203;-80
2022/08/29 07:07:07;;;;;;;7.30;3.30;;;;;;;15.61;73.49;101365.44;5123541;27;20227;-79
2022/08/29 07:09:35;;;;;;;6.27;3.53;;;;;;;15.67;73.33;101358.75;5119317;27;20247;-79
2022/08/29 07:12:02;;;;;;;8.20;3.73;;;;;;;15.71;73.13;101363.81;5120280;27;20219;-79
2022/08/29 07:14:28;;;;;;;9.07;3.53;;;;;;;15.72;72.87;101361.97;5117190;27;20561;-80
2022/08/29 07:16:55;;;;;;;10.97;3.77;;;;;;;15.73;72.90;101369.06;5118596;27;20250;-79
2022/08/29 07:19:22;;;;;;;8.27;3.40;;;;;;;15.75;73.04;101369.81;5106294;27;20201;-78
2022/08/29 07:21:52;;;;;;;7.50;3.33;;;;;;;15.79;73.17;101371.28;5117017;27;20229;-79
2022/08/29 07:24:18;;;;;;;8.30;3.30;;;;;;;15.84;73.03;101371.81;5118125;27;20193;-79
2022/08/29 07:26:46;;;;;;;6.83;3.60;;;;;;;15.88;73.15;101366.09;5115750;27;20228;-79
2022/08/29 07:29:15;;;;;;;10.57;3.67;;;;;;;15.92;73.04;101369.44;5123413;27;20208;-79
2022/08/29 07:31:42;;;;;;;6.17;3.80;;;;;;;15.98;73.30;101369.81;5099562;27;20266;-80
2022/08/29 07:34:08;;;;;;;9.53;3.43;;;;;;;16.06;73.12;101363.88;5126936;27;20361;-79
2022/08/29 07:36:36;;;;;;;7.50;3.10;;;;;;;16.12;72.94;101365.25;5121366;27;20227;-78
2022/08/29 07:39:05;;;;;;;8.40;4.30;;;;;;;16.18;72.77;101359.41;5118037;27;20602;-79
2022/08/29 07:41:31;;;;;;;11.70;4.10;;;;;;;16.21;72.56;101359.16;5115868;27;20205;-81
2022/08/29 07:43:59;;;;;;;9.57;3.50;;;;;;;16.26;72.67;101359.69;5124085;27;20237;-80
2022/08/29 07:46:26;;;;;;;8.43;3.63;;;;;;;16.34;72.55;101354.56;5114424;27;20228;-82
2022/08/29 07:48:52;;;;;;;7.93;3.37;;;;;;;16.42;72.52;101362.06;5128120;27;20298;-81
2022/08/29 07:51:22;;;;;;;6.90;3.23;;;;;;;16.57;72.90;101360.88;5120745;27;20516;-82
2022/08/29 07:53:50;;;;;;;11.53;3.67;;;;;;;16.73;72.93;101358.75;5120569;28;20209;-81
2022/08/29 07:56:21;;;;;;;6.73;3.53;;;;;;;16.86;72.36;101356.81;5113889;28;20196;-81
2022/08/29 07:58:48;;;;;;;8.57;4.00;;;;;;;16.95;71.53;101361.47;5121604;28;20792;-81
2022/08/29 08:01:16;;;;;;;12.70;4.13;;;;;;;17.02;71.28;101357.31;5113256;28;20212;-81
2022/08/29 08:03:43;;;;;;;10.33;3.70;;;;;;;17.08;70.83;101358.66;5115022;28;20227;-80
2022/08/29 08:06:10;;;;;;;10.73;3.60;;;;;;;17.17;70.76;101370.53;5124246;28;20226;-81
2022/08/29 08:08:37;;;;;;;6.33;3.40;;;;;;;17.23;70.40;101370.91;5115595;28;20265;-81
2022/08/29 08:11:04;;;;;;;7.87;3.60;;;;;;;17.31;70.43;101368.47;5115822;28;20210;-81
2022/08/29 08:13:31;;;;;;;13.83;3.63;;;;;;;17.42;70.79;101364.88;5115624;28;20204;-81
2022/08/29 08:15:58;;;;;;;12.10;4.40;;;;;;;17.56;70.38;101366.47;5102664;28;20202;-81
2022/08/29 08:18:28;;;;;;;8.73;3.63;;;;;;;17.73;70.43;101367.84;5118428;28;20731;-82
2022/08/29 08:20:55;;;;;;;7.90;3.50;;;;;;;17.88;69.91;101372.81;5111378;28;20560;-82
2022/08/29 08:23:21;;;;;;;11.07;4.00;;;;;;;17.98;69.18;101371.06;5109852;28;20229;-81
2022/08/29 08:25:48;;;;;;;8.83;4.40;;;;;;;18.06;68.75;101380.38;5114352;28;20262;-81
2022/08/29 08:28:15;;;;;;;7.03;3.43;;;;;;;18.11;68.67;101383.50;5126438;27;20730;-81
2022/08/29 08:30:42;;;;;;;7.70;3.70;;;;;;;18.15;68.23;101375.03;5115384;28;20219;-81
2022/08/29 08:33:09;;;;;;;6.43;3.70;;;;;;;18.18;68.46;101380.19;5118912;28;20657;-81
2022/08/29 08:35:39;;;;;;;7.93;4.33;;;;;;;18.26;68.28;101379.56;5121593;28;20208;-81
2022/08/29 08:38:07;;;;;;;9.60;3.93;;;;;;;18.30;68.17;101372.91;5118673;27;20248;-81
2022/08/29 08:40:39;;;;;;;7.10;3.27;;;;;;;18.36;68.40;101377.78;5123848;27;20288;-81
2022/08/29 08:43:10;;;;;;;9.93;4.23;;;;;;;18.45;68.75;101371.59;5111211;27;20214;-81
2022/08/29 08:45:39;;;;;;;8.43;4.13;;;;;;;18.53;68.98;101370.94;5126288;27;20312;-82
2022/08/29 08:48:09;;;;;;;10.33;4.57;;;;;;;18.58;68.99;101377.69;5121526;27;20747;-82
2022/08/29 08:50:48;;;;;;;8.17;4.33;;;;;;;18.62;69.66;101384.56;5123518;27;20349;-82
2022/08/29 08:53:21;;;;;;;9.10;4.83;;;;;;;18.65;69.81;101391.50;5127338;27;20199;-82
2022/08/29 08:55:50;;;;;;;13.90;5.67;;;;;;;18.67;70.83;101387.69;5124292;27;20213;-82
2022/08/29 08:58:30;;;;;;;10.60;5.97;;;;;;;18.72;71.71;101390.00;5125961;27;20308;-81
2022/08/29 09:01:00;;;;;;;12.87;6.03;;;;;;;18.75;72.18;101395.16;5124175;27;20612;-81
2022/08/29 09:04:02;;;;;;;14.20;6.10;;;;;;;18.78;72.66;101396.72;5122850;27;20232;-81
2022/08/29 09:06:42;;;;;;;10.97;5.47;;;;;;;18.81;73.34;101394.59;5110452;27;20745;-81
2022/08/29 09:09:20;;;;;;;12.83;5.97;;;;;;;18.82;73.69;101390.06;5113050;27;20689;-81
2022/08/29 09:12:00;;;;;;;11.40;5.97;;;;;;;18.84;73.97;101386.25;5109881;27;20296;-81
2022/08/29 09:14:40;;;;;;;9.00;5.77;;;;;;;18.83;73.60;101394.47;5107150;27;20205;-81
2022/08/29 09:17:11;;;;;;;10.63;5.37;;;;;;;18.81;73.65;101393.78;5109728;27;20222;-81
2022/08/29 09:19:38;;;;;;;13.67;6.60;;;;;;;18.81;73.95;101393.78;5123394;27;20201;-81
2022/08/29 09:22:13;;;;;;;12.40;5.97;;;;;;;18.81;74.10;101393.78;5108587;27;20211;-81
2022/08/29 09:24:47;;;;;;;12.87;6.63;;;;;;;18.83;74.19;101391.78;5123729;27;20208;-81
2022/08/29 09:27:19;;;;;;;12.53;5.83;;;;;;;18.81;73.77;101394.59;5116881;27;20321;-81
2022/08/29 09:29:58;;;;;;;11.97;6.20;;;;;;;18.78;73.68;101394.91;5117594;27;20214;-82
2022/08/29 09:32:24;;;;;;;11.07;6.40;;;;;;;18.77;73.57;101387.78;5110316;27;20197;-81
2022/08/29 09:34:51;;;;;;;10.53;6.63;;;;;;;18.74;73.77;101393.44;5103500;27;20218;-81
2022/08/29 09:37:25;;;;;;;14.13;6.40;;;;;;;18.71;73.49;101393.69;5116582;27;20597;-82
2022/08/29 09:39:55;;;;;;;10.47;5.93;;;;;;;18.71;73.60;101391.00;5113720;27;20215;-81
2022/08/29 09:42:23;;;;;;;10.60;5.97;;;;;;;18.71;73.49;101391.00;5109639;27;20574;-81
2022/08/29 09:44:54;;;;;;;11.30;6.20;;;;;;;18.71;73.68;101389.16;5117640;27;20204;-82
2022/08/29 09:47:22;;;;;;;11.33;6.43;;;;;;;18.76;73.68;101390.63;5123967;27;20249;-82
2022/08/29 09:50:04;;;;;;;12.70;5.90;;;;;;;18.78;73.40;101397.59;5113643;27;20206;-81
2022/08/29 09:52:32;;;;;;;12.07;6.57;;;;;;;18.79;73.21;101398.44;5116387;27;20201;-81
2022/08/29 09:55:17;;;;;;;11.50;6.47;;;;;;;18.82;73.12;101401.72;5108147;27;20658;-81
2022/08/29 09:57:50;;;;;;;12.90;6.80;;;;;;;18.85;72.87;101397.91;5121587;27;20228;-82
2022/08/29 10:00:23;;;;;;;10.77;5.87;;;;;;;18.86;72.41;101396.91;5121311;27;20213;-82
2022/08/29 10:02:52;;;;;;;10.47;5.97;;;;;;;18.89;72.59;101397.50;5120235;27;20627;-82
2022/08/29 10:05:33;;;;;;;11.20;5.77;;;;;;;18.93;72.60;101398.09;5122299;27;20200;-82
2022/08/29 10:08:03;;;;;;;12.33;5.50;;;;;;;18.99;72.41;101397.56;5116192;27;20222;-82
2022/08/29 10:10:34;;;;;;;10.87;5.60;;;;;;;19.04;72.25;101398.00;5118335;27;20197;-83
2022/08/29 10:13:07;;;;;;;10.43;5.70;;;;;;;19.06;71.62;101386.09;5122765;27;20203;-83
2022/08/29 10:15:38;;;;;;;12.57;6.10;;;;;;;19.10;71.44;101397.50;5116533;27;20205;-82
2022/08/29 10:18:20;;;;;;;11.20;5.50;;;;;;;19.14;70.98;101396.25;5115917;27;20234;-82
2022/08/29 10:20:56;;;;;;;11.03;5.53;;;;;;;19.18;71.04;101392.25;5122106;27;20202;-84
2022/08/29 10:23:32;;;;;;;11.00;5.30;;;;;;;19.25;70.94;101393.44;5127893;27;20217;-83
2022/08/29 10:26:04;;;;;;;10.73;5.97;;;;;;;19.32;70.80;101397.31;5121977;27;20203;-82
2022/08/29 10:28:38;;;;;;;9.90;6.17;;;;;;;19.38;70.85;101398.59;5115048;27;20199;-81
2022/08/29 10:31:08;;;;;;;12.90;5.70;;;;;;;19.45;70.53;101396.22;5119371;27;20220;-81
2022/08/29 10:33:54;;;;;;;8.73;6.30;;;;;;;19.50;70.81;101396.72;5119989;27;20201;-81
2022/08/29 10:36:29;;;;;;;12.60;5.53;;;;;;;19.54;70.47;101384.63;5116091;27;20196;-81
2022/08/29 10:39:10;;;;;;;10.30;5.40;;;;;;;19.59;71.02;101380.53;5119779;27;20231;-81
2022/08/29 10:41:47;;;;;;;9.23;5.80;;;;;;;19.66;70.70;101386.25;5113924;27;20202;-81
2022/08/29 10:44:31;;;;;;;9.30;6.33;;;;;;;19.68;70.61;101393.22;5118537;27;20586;-81
2022/08/29 10:47:11;;;;;;;8.13;5.47;;;;;;;19.73;70.59;101382.84;5121621;27;20240;-82
2022/08/29 10:49:54;;;;;;;9.70;5.90;;;;;;;19.79;70.44;101378.72;5114650;27;20202;-81
2022/08/29 10:52:30;;;;;;;8.80;5.93;;;;;;;19.90;70.94;101377.75;5120239;27;20206;-81
2022/08/29 10:55:06;;;;;;;14.90;5.90;;;;;;;20.01;70.82;101385.75;5125796;27;20229;-82
2022/08/29 10:57:45;;;;;;;10.43;6.07;;;;;;;20.11;70.36;101375.78;5119988;27;20614;-82
2022/08/29 11:00:15;;;;;;;10.17;6.13;;;;;;;20.20;69.63;101379.50;5125013;27;20289;-81
2022/08/29 11:02:50;;;;;;;9.07;5.50;;;;;;;20.30;69.16;101372.25;5118801;27;20213;-81
2022/08/29 11:05:23;;;;;;;14.53;6.03;;;;;;;20.39;68.76;101372.28;5118354;27;20204;-81
2022/08/29 11:07:55;;;;;;;11.07;6.17;;;;;;;20.48;68.00;101370.56;5117828;27;20267;-81
2022/08/29 11:10:27;;;;;;;11.10;5.43;;;;;;;20.58;67.82;101373.28;5111227;27;20205;-81
2022/08/29 11:12:58;;;;;;;13.07;6.20;;;;;;;20.68;67.18;101380.38;5111325;27;20225;-81
2022/08/29 11:15:31;;;;;;;9.75;5.43;;;;;;;20.82;67.27;101389.03;5108038;27;20207;-81
2022/08/29 11:18:04;;;;;;;10.98;5.60;;;;;;;20.94;66.93;101379.75;5108011;27;20705;-81
2022/08/29 11:20:34;;;;;;;7.82;5.20;;;;;;;21.07;66.49;101383.00;5118672;27;20195;-81
2022/08/29 11:23:08;;;;;;;9.50;5.78;;;;;;;21.19;65.92;101384.50;5101972;27;20204;-81
2022/08/29 11:25:40;;;;;;;6.80;5.55;;;;;;;21.28;65.27;101378.25;5115338;27;20668;-82
2022/08/29 11:28:18;;;;;;;12.15;5.65;;;;;;;21.36;64.66;101375.63;5121182;27;20222;-81
2022/08/29 11:30:52;;;;;;;8.07;5.65;;;;;;;21.45;64.52;101368.47;5105605;27;20204;-82
2022/08/29 11:33:32;;;;;;;6.43;4.65;;;;;;;21.59;64.10;101370.69;5113724;27;20209;-82
2022/08/29 11:36:15;;;;;;;10.30;5.00;;;;;;;21.71;63.66;101361.31;5117349;27;20199;-82